aviador You're here:

RKJK Decoded Metar

KUNSAN in KOREA
Report Time2018-01-18 08:56:00
UTC Time2018-01-18 09:59:57
Flight Rules vfr VFR
Wind310° at 05 kt
W.Decomp.*RWY 36: 3.7 kt HW 3.4 kt LCW
W.Rank310° ranks 9
Current wind is below 310° avg. (9.1)
Visibility9999 m
Phenomena:N/A
Clouds:N/A
Expected CloudBase > 800 ft AGL from Temp-Dew spread
CeilingNone
Temp03°C (ISA -12)
Dew Point01°C (87% RH)
AAT-0.6°C
QNH1024 hPa
Density Alt-1,703 ft
Elevation30 ft
Report Wrong Elevation
Raw Report
RKJK 180856Z AUTO 31005KT 7SM CLR 03/01 A3024 RMK AO2 SLP245
T00280007 52006=

Extra information for RKJK:More info

Metar Taf Metar & Taf Last 4 Metars F.Rules Stats Wind Profile Meteogram Temp Stats Airport Information Weather charts Add Link Nearby VenuesMetar ALERT Operation Metar Decoded Social comments